sensor_id;sensor_type;location;lat;lon;timestamp;temperature;humidity
64869;DHT22;51349;52.424;10.840;2022-12-19T00:04:59;-2.80;99.90
64869;DHT22;51349;52.424;10.840;2022-12-19T00:09:59;-2.70;99.90
64869;DHT22;51349;52.424;10.840;2022-12-19T00:15:00;-2.60;99.90
64869;DHT22;51349;52.424;10.840;2022-12-19T00:20:01;-2.70;99.90
64869;DHT22;51349;52.424;10.840;2022-12-19T00:25:01;-2.80;99.90
64869;DHT22;51349;52.424;10.840;2022-12-19T00:30:02;-2.80;99.90
64869;DHT22;51349;52.424;10.840;2022-12-19T00:35:03;-2.80;99.90
64869;DHT22;51349;52.424;10.840;2022-12-19T00:40:04;-2.70;99.90
64869;DHT22;51349;52.424;10.840;2022-12-19T00:45:06;-2.70;99.90
64869;DHT22;51349;52.424;10.840;2022-12-19T00:50:06;-2.70;99.90
64869;DHT22;51349;52.424;10.840;2022-12-19T00:55:08;-2.70;99.90
64869;DHT22;51349;52.424;10.840;2022-12-19T01:00:09;-2.70;99.90
64869;DHT22;51349;52.424;10.840;2022-12-19T01:05:10;-2.70;99.90
64869;DHT22;51349;52.424;10.840;2022-12-19T01:10:10;-2.70;99.90
64869;DHT22;51349;52.424;10.840;2022-12-19T01:15:16;-2.70;99.90
64869;DHT22;51349;52.424;10.840;2022-12-19T01:20:20;-2.60;99.90
64869;DHT22;51349;52.424;10.840;2022-12-19T01:25:21;-2.50;99.90
64869;DHT22;51349;52.424;10.840;2022-12-19T01:30:21;-2.50;99.90
64869;DHT22;51349;52.424;10.840;2022-12-19T01:35:22;-2.50;99.90
64869;DHT22;51349;52.424;10.840;2022-12-19T01:40:23;-2.40;99.90
64869;DHT22;51349;52.424;10.840;2022-12-19T01:45:35;-2.50;99.90
64869;DHT22;51349;52.424;10.840;2022-12-19T01:55:42;-2.30;99.90
64869;DHT22;51349;52.424;10.840;2022-12-19T02:00:43;-1.90;99.90
64869;DHT22;51349;52.424;10.840;2022-12-19T02:05:45;-1.60;99.90
64869;DHT22;51349;52.424;10.840;2022-12-19T02:10:46;-1.60;99.90
64869;DHT22;51349;52.424;10.840;2022-12-19T02:16:34;-1.20;99.90
64869;DHT22;51349;52.424;10.840;2022-12-19T02:22:33;-1.00;99.90
64869;DHT22;51349;52.424;10.840;2022-12-19T02:37:48;-0.80;99.90
64869;DHT22;51349;52.424;10.840;2022-12-19T02:42:53;-0.90;99.90
64869;DHT22;51349;52.424;10.840;2022-12-19T02:48:00;-0.80;99.90
64869;DHT22;51349;52.424;10.840;2022-12-19T02:53:02;-1.10;99.90
64869;DHT22;51349;52.424;10.840;2022-12-19T03:08:45;-1.40;99.90
64869;DHT22;51349;52.424;10.840;2022-12-19T03:13:59;-1.40;99.90
64869;DHT22;51349;52.424;10.840;2022-12-19T03:19:00;-1.40;99.90
64869;DHT22;51349;52.424;10.840;2022-12-19T03:24:01;-1.40;99.90
64869;DHT22;51349;52.424;10.840;2022-12-19T03:34:17;-1.30;99.90
64869;DHT22;51349;52.424;10.840;2022-12-19T03:39:19;-1.40;99.90
64869;DHT22;51349;52.424;10.840;2022-12-19T03:44:22;-1.40;99.90
64869;DHT22;51349;52.424;10.840;2022-12-19T03:49:24;-1.40;99.90
64869;DHT22;51349;52.424;10.840;2022-12-19T03:54:27;-1.50;99.90
64869;DHT22;51349;52.424;10.840;2022-12-19T03:59:47;-1.50;99.90
64869;DHT22;51349;52.424;10.840;2022-12-19T04:04:58;-1.50;99.90
64869;DHT22;51349;52.424;10.840;2022-12-19T04:10:00;-1.40;99.90
64869;DHT22;51349;52.424;10.840;2022-12-19T04:15:04;-1.40;99.90
64869;DHT22;51349;52.424;10.840;2022-12-19T04:25:09;-1.40;99.90
64869;DHT22;51349;52.424;10.840;2022-12-19T04:30:14;-1.30;99.90
64869;DHT22;51349;52.424;10.840;2022-12-19T04:35:15;-1.40;99.90
64869;DHT22;51349;52.424;10.840;2022-12-19T04:40:16;-1.40;99.90
64869;DHT22;51349;52.424;10.840;2022-12-19T04:45:17;-1.40;99.90
64869;DHT22;51349;52.424;10.840;2022-12-19T04:50:17;-1.30;99.90
64869;DHT22;51349;52.424;10.840;2022-12-19T04:55:18;-1.40;99.90
64869;DHT22;51349;52.424;10.840;2022-12-19T05:00:19;-1.40;99.90
64869;DHT22;51349;52.424;10.840;2022-12-19T05:05:19;-1.40;99.90
64869;DHT22;51349;52.424;10.840;2022-12-19T05:10:20;-1.50;99.90
64869;DHT22;51349;52.424;10.840;2022-12-19T05:15:20;-1.50;99.90
64869;DHT22;51349;52.424;10.840;2022-12-19T05:20:21;-1.60;99.90
64869;DHT22;51349;52.424;10.840;2022-12-19T05:25:22;-1.60;99.90
64869;DHT22;51349;52.424;10.840;2022-12-19T05:30:22;-1.50;99.90
64869;DHT22;51349;52.424;10.840;2022-12-19T05:35:23;-1.60;99.90
64869;DHT22;51349;52.424;10.840;2022-12-19T05:40:24;-1.60;99.90
64869;DHT22;51349;52.424;10.840;2022-12-19T05:45:25;-1.50;99.90
64869;DHT22;51349;52.424;10.840;2022-12-19T05:50:25;-1.50;99.90
64869;DHT22;51349;52.424;10.840;2022-12-19T05:55:26;-1.30;99.90
64869;DHT22;51349;52.424;10.840;2022-12-19T06:00:26;-1.30;99.90
64869;DHT22;51349;52.424;10.840;2022-12-19T06:05:27;-0.90;99.90
64869;DHT22;51349;52.424;10.840;2022-12-19T06:10:28;-0.20;99.90
64869;DHT22;51349;52.424;10.840;2022-12-19T06:15:28;0.10;99.90
64869;DHT22;51349;52.424;10.840;2022-12-19T06:20:29;-0.40;99.90
64869;DHT22;51349;52.424;10.840;2022-12-19T06:25:29;-0.30;99.90
64869;DHT22;51349;52.424;10.840;2022-12-19T06:30:30;0.30;99.90
64869;DHT22;51349;52.424;10.840;2022-12-19T06:35:30;0.30;99.90
64869;DHT22;51349;52.424;10.840;2022-12-19T06:40:31;0.60;99.90
64869;DHT22;51349;52.424;10.840;2022-12-19T06:45:50;0.60;99.90
64869;DHT22;51349;52.424;10.840;2022-12-19T06:50:51;0.70;99.90
64869;DHT22;51349;52.424;10.840;2022-12-19T06:55:53;0.60;99.90
64869;DHT22;51349;52.424;10.840;2022-12-19T07:00:55;0.70;99.90
64869;DHT22;51349;52.424;10.840;2022-12-19T07:05:55;1.10;99.90
64869;DHT22;51349;52.424;10.840;2022-12-19T07:10:56;1.10;99.90
64869;DHT22;51349;52.424;10.840;2022-12-19T07:15:59;1.10;99.90
64869;DHT22;51349;52.424;10.840;2022-12-19T07:21:01;1.20;99.90
64869;DHT22;51349;52.424;10.840;2022-12-19T07:26:03;1.30;99.90
64869;DHT22;51349;52.424;10.840;2022-12-19T07:31:04;1.60;99.90
64869;DHT22;51349;52.424;10.840;2022-12-19T07:36:04;1.70;99.90
64869;DHT22;51349;52.424;10.840;2022-12-19T07:41:05;1.90;99.90
64869;DHT22;51349;52.424;10.840;2022-12-19T07:46:05;1.90;99.90
64869;DHT22;51349;52.424;10.840;2022-12-19T07:51:06;1.90;99.90
64869;DHT22;51349;52.424;10.840;2022-12-19T07:56:07;2.10;99.90
64869;DHT22;51349;52.424;10.840;2022-12-19T08:01:07;2.00;99.90
64869;DHT22;51349;52.424;10.840;2022-12-19T08:06:09;2.20;99.90
64869;DHT22;51349;52.424;10.840;2022-12-19T08:11:13;2.30;99.90
64869;DHT22;51349;52.424;10.840;2022-12-19T08:16:16;2.10;99.90
64869;DHT22;51349;52.424;10.840;2022-12-19T08:21:17;2.20;99.90
64869;DHT22;51349;52.424;10.840;2022-12-19T08:26:19;2.00;99.90
64869;DHT22;51349;52.424;10.840;2022-12-19T08:31:26;2.20;99.90
64869;DHT22;51349;52.424;10.840;2022-12-19T08:36:27;2.20;99.90
64869;DHT22;51349;52.424;10.840;2022-12-19T08:41:29;2.10;99.90
64869;DHT22;51349;52.424;10.840;2022-12-19T08:46:29;2.20;99.90
64869;DHT22;51349;52.424;10.840;2022-12-19T08:51:30;2.00;99.90
64869;DHT22;51349;52.424;10.840;2022-12-19T08:56:30;2.10;99.90
64869;DHT22;51349;52.424;10.840;2022-12-19T09:01:31;2.20;99.90
64869;DHT22;51349;52.424;10.840;2022-12-19T09:06:32;2.20;99.90
64869;DHT22;51349;52.424;10.840;2022-12-19T09:11:32;2.20;99.90
64869;DHT22;51349;52.424;10.840;2022-12-19T09:16:33;2.30;99.90
64869;DHT22;51349;52.424;10.840;2022-12-19T09:21:34;2.40;99.90
64869;DHT22;51349;52.424;10.840;2022-12-19T09:26:35;2.40;99.90
64869;DHT22;51349;52.424;10.840;2022-12-19T09:31:38;2.40;99.90
64869;DHT22;51349;52.424;10.840;2022-12-19T09:36:39;2.40;99.90
64869;DHT22;51349;52.424;10.840;2022-12-19T09:46:58;2.50;99.90
64869;DHT22;51349;52.424;10.840;2022-12-19T09:52:29;2.50;99.90
64869;DHT22;51349;52.424;10.840;2022-12-19T09:57:39;2.50;99.90
64869;DHT22;51349;52.424;10.840;2022-12-19T10:03:15;2.60;99.90
64869;DHT22;51349;52.424;10.840;2022-12-19T10:08:20;2.70;99.90
64869;DHT22;51349;52.424;10.840;2022-12-19T10:18:57;2.80;99.90
64869;DHT22;51349;52.424;10.840;2022-12-19T10:24:08;2.80;99.90
64869;DHT22;51349;52.424;10.840;2022-12-19T10:29:37;2.90;99.90
64869;DHT22;51349;52.424;10.840;2022-12-19T10:34:44;2.90;99.90
64869;DHT22;51349;52.424;10.840;2022-12-19T10:45:14;3.00;99.90
64869;DHT22;51349;52.424;10.840;2022-12-19T10:50:21;3.00;99.90
64869;DHT22;51349;52.424;10.840;2022-12-19T11:00:36;3.00;99.90
64869;DHT22;51349;52.424;10.840;2022-12-19T11:10:51;3.10;99.90
64869;DHT22;51349;52.424;10.840;2022-12-19T11:15:57;3.20;99.90
64869;DHT22;51349;52.424;10.840;2022-12-19T11:26:02;3.10;99.90
64869;DHT22;51349;52.424;10.840;2022-12-19T11:36:44;3.10;99.90
64869;DHT22;51349;52.424;10.840;2022-12-19T11:41:55;3.20;99.90
64869;DHT22;51349;52.424;10.840;2022-12-19T11:47:10;3.10;99.90
64869;DHT22;51349;52.424;10.840;2022-12-19T11:57:57;3.20;99.90
64869;DHT22;51349;52.424;10.840;2022-12-19T12:24:22;3.40;99.90
64869;DHT22;51349;52.424;10.840;2022-12-19T12:29:54;3.40;99.90
64869;DHT22;51349;52.424;10.840;2022-12-19T12:35:13;3.60;99.90
64869;DHT22;51349;52.424;10.840;2022-12-19T12:45:37;3.60;99.90
64869;DHT22;51349;52.424;10.840;2022-12-19T12:50:39;4.30;99.90
64869;DHT22;51349;52.424;10.840;2022-12-19T12:55:41;4.50;99.90
64869;DHT22;51349;52.424;10.840;2022-12-19T13:01:06;5.00;99.90
64869;DHT22;51349;52.424;10.840;2022-12-19T13:11:36;5.20;99.90
64869;DHT22;51349;52.424;10.840;2022-12-19T13:16:55;5.20;99.90
64869;DHT22;51349;52.424;10.840;2022-12-19T13:38:22;5.40;99.90
64869;DHT22;51349;52.424;10.840;2022-12-19T13:43:30;5.50;99.90
64869;DHT22;51349;52.424;10.840;2022-12-19T13:48:54;5.50;99.90
64869;DHT22;51349;52.424;10.840;2022-12-19T13:53:56;5.40;99.90
64869;DHT22;51349;52.424;10.840;2022-12-19T13:58:59;5.40;99.90
64869;DHT22;51349;52.424;10.840;2022-12-19T14:04:27;5.50;99.90
64869;DHT22;51349;52.424;10.840;2022-12-19T14:14:29;5.40;99.90
64869;DHT22;51349;52.424;10.840;2022-12-19T14:19:51;5.30;99.90
64869;DHT22;51349;52.424;10.840;2022-12-19T14:24:59;5.30;99.90
64869;DHT22;51349;52.424;10.840;2022-12-19T14:30:02;5.40;99.90
64869;DHT22;51349;52.424;10.840;2022-12-19T14:35:08;5.30;99.90
64869;DHT22;51349;52.424;10.840;2022-12-19T14:40:25;5.30;99.90
64869;DHT22;51349;52.424;10.840;2022-12-19T14:45:38;5.30;99.90
64869;DHT22;51349;52.424;10.840;2022-12-19T14:50:39;5.40;99.90
64869;DHT22;51349;52.424;10.840;2022-12-19T14:55:39;5.40;99.90
64869;DHT22;51349;52.424;10.840;2022-12-19T15:00:45;5.40;99.90
64869;DHT22;51349;52.424;10.840;2022-12-19T15:05:47;5.40;99.90
64869;DHT22;51349;52.424;10.840;2022-12-19T15:10:48;5.50;99.90
64869;DHT22;51349;52.424;10.840;2022-12-19T15:15:55;5.40;99.90
64869;DHT22;51349;52.424;10.840;2022-12-19T15:21:09;5.40;99.90
64869;DHT22;51349;52.424;10.840;2022-12-19T15:26:18;5.30;99.90
64869;DHT22;51349;52.424;10.840;2022-12-19T15:31:35;5.30;99.90
64869;DHT22;51349;52.424;10.840;2022-12-19T15:36:37;5.30;99.90
64869;DHT22;51349;52.424;10.840;2022-12-19T15:41:38;5.30;99.90
64869;DHT22;51349;52.424;10.840;2022-12-19T15:46:39;5.30;99.90
64869;DHT22;51349;52.424;10.840;2022-12-19T15:51:39;5.40;99.90
64869;DHT22;51349;52.424;10.840;2022-12-19T15:56:44;5.30;99.90
64869;DHT22;51349;52.424;10.840;2022-12-19T16:01:46;5.30;99.90
64869;DHT22;51349;52.424;10.840;2022-12-19T16:06:46;5.40;99.90
64869;DHT22;51349;52.424;10.840;2022-12-19T16:11:48;5.40;99.90
64869;DHT22;51349;52.424;10.840;2022-12-19T16:16:52;5.40;99.90
64869;DHT22;51349;52.424;10.840;2022-12-19T16:21:54;5.40;99.90
64869;DHT22;51349;52.424;10.840;2022-12-19T16:26:56;5.50;99.90
64869;DHT22;51349;52.424;10.840;2022-12-19T16:31:57;5.40;99.90
64869;DHT22;51349;52.424;10.840;2022-12-19T16:37:00;5.50;99.90
64869;DHT22;51349;52.424;10.840;2022-12-19T16:42:03;5.50;99.90
64869;DHT22;51349;52.424;10.840;2022-12-19T16:47:08;5.40;99.90
64869;DHT22;51349;52.424;10.840;2022-12-19T16:52:10;5.70;99.90
64869;DHT22;51349;52.424;10.840;2022-12-19T16:57:21;5.70;99.90
64869;DHT22;51349;52.424;10.840;2022-12-19T17:02:44;5.90;99.90
64869;DHT22;51349;52.424;10.840;2022-12-19T17:07:45;6.00;99.90
64869;DHT22;51349;52.424;10.840;2022-12-19T17:12:46;6.20;99.90
64869;DHT22;51349;52.424;10.840;2022-12-19T17:17:48;6.50;99.90
64869;DHT22;51349;52.424;10.840;2022-12-19T17:22:49;6.50;99.90
64869;DHT22;51349;52.424;10.840;2022-12-19T17:27:51;6.60;99.90
64869;DHT22;51349;52.424;10.840;2022-12-19T17:32:53;6.70;99.90
64869;DHT22;51349;52.424;10.840;2022-12-19T17:37:56;6.60;99.90
64869;DHT22;51349;52.424;10.840;2022-12-19T17:42:58;6.70;99.90
64869;DHT22;51349;52.424;10.840;2022-12-19T17:48:01;6.70;99.90
64869;DHT22;51349;52.424;10.840;2022-12-19T17:53:04;6.90;99.90
64869;DHT22;51349;52.424;10.840;2022-12-19T17:58:05;7.20;99.90
64869;DHT22;51349;52.424;10.840;2022-12-19T18:03:19;7.10;99.90
64869;DHT22;51349;52.424;10.840;2022-12-19T18:13:25;6.90;99.90
64869;DHT22;51349;52.424;10.840;2022-12-19T18:18:28;6.90;99.90
64869;DHT22;51349;52.424;10.840;2022-12-19T18:23:30;7.10;99.90
64869;DHT22;51349;52.424;10.840;2022-12-19T18:28:31;6.90;99.90
64869;DHT22;51349;52.424;10.840;2022-12-19T18:33:37;6.70;99.90
64869;DHT22;51349;52.424;10.840;2022-12-19T18:38:38;6.50;99.90
64869;DHT22;51349;52.424;10.840;2022-12-19T18:43:39;6.40;99.90
64869;DHT22;51349;52.424;10.840;2022-12-19T18:48:40;6.20;99.90
64869;DHT22;51349;52.424;10.840;2022-12-19T18:53:43;6.20;99.90
64869;DHT22;51349;52.424;10.840;2022-12-19T18:58:44;6.10;99.90
64869;DHT22;51349;52.424;10.840;2022-12-19T19:03:52;6.10;99.90
64869;DHT22;51349;52.424;10.840;2022-12-19T19:08:53;6.20;99.90
64869;DHT22;51349;52.424;10.840;2022-12-19T19:13:56;6.40;99.90
64869;DHT22;51349;52.424;10.840;2022-12-19T19:18:57;6.30;99.90
64869;DHT22;51349;52.424;10.840;2022-12-19T19:24:19;6.40;99.90
64869;DHT22;51349;52.424;10.840;2022-12-19T19:29:20;6.50;99.90
64869;DHT22;51349;52.424;10.840;2022-12-19T19:34:27;6.50;99.90
64869;DHT22;51349;52.424;10.840;2022-12-19T19:39:30;6.40;99.90
64869;DHT22;51349;52.424;10.840;2022-12-19T19:44:32;6.30;99.90
64869;DHT22;51349;52.424;10.840;2022-12-19T19:49:32;6.40;99.90
64869;DHT22;51349;52.424;10.840;2022-12-19T19:54:34;6.20;99.90
64869;DHT22;51349;52.424;10.840;2022-12-19T19:59:34;6.20;99.90
64869;DHT22;51349;52.424;10.840;2022-12-19T20:04:35;6.30;99.90
64869;DHT22;51349;52.424;10.840;2022-12-19T20:09:36;6.40;99.90
64869;DHT22;51349;52.424;10.840;2022-12-19T20:14:38;6.80;99.90
64869;DHT22;51349;52.424;10.840;2022-12-19T20:19:38;6.70;99.90
64869;DHT22;51349;52.424;10.840;2022-12-19T20:24:39;6.90;99.90
64869;DHT22;51349;52.424;10.840;2022-12-19T20:29:40;7.10;99.90
64869;DHT22;51349;52.424;10.840;2022-12-19T20:34:40;7.30;99.90
64869;DHT22;51349;52.424;10.840;2022-12-19T20:39:41;7.30;99.90
64869;DHT22;51349;52.424;10.840;2022-12-19T20:44:42;7.10;99.90
64869;DHT22;51349;52.424;10.840;2022-12-19T20:49:42;7.20;99.90
64869;DHT22;51349;52.424;10.840;2022-12-19T20:54:44;7.20;99.90
64869;DHT22;51349;52.424;10.840;2022-12-19T20:59:44;7.40;99.90
64869;DHT22;51349;52.424;10.840;2022-12-19T21:04:45;7.40;99.90
64869;DHT22;51349;52.424;10.840;2022-12-19T21:09:45;7.50;99.90
64869;DHT22;51349;52.424;10.840;2022-12-19T21:14:47;7.60;99.90
64869;DHT22;51349;52.424;10.840;2022-12-19T21:19:47;7.40;99.90
64869;DHT22;51349;52.424;10.840;2022-12-19T21:24:48;7.40;99.90
64869;DHT22;51349;52.424;10.840;2022-12-19T21:29:49;7.60;99.90
64869;DHT22;51349;52.424;10.840;2022-12-19T21:34:51;7.60;99.90
64869;DHT22;51349;52.424;10.840;2022-12-19T21:39:52;7.70;99.90
64869;DHT22;51349;52.424;10.840;2022-12-19T21:44:52;7.90;99.90
64869;DHT22;51349;52.424;10.840;2022-12-19T21:49:53;7.90;99.90
64869;DHT22;51349;52.424;10.840;2022-12-19T21:54:54;7.90;99.90
64869;DHT22;51349;52.424;10.840;2022-12-19T21:59:54;8.10;99.90
64869;DHT22;51349;52.424;10.840;2022-12-19T22:04:55;8.10;99.90
64869;DHT22;51349;52.424;10.840;2022-12-19T22:09:55;8.10;99.90
64869;DHT22;51349;52.424;10.840;2022-12-19T22:14:56;8.10;99.90
64869;DHT22;51349;52.424;10.840;2022-12-19T22:19:56;8.00;99.90
64869;DHT22;51349;52.424;10.840;2022-12-19T22:24:57;8.00;99.90
64869;DHT22;51349;52.424;10.840;2022-12-19T22:29:58;8.20;99.90
64869;DHT22;51349;52.424;10.840;2022-12-19T22:34:58;8.10;99.90
64869;DHT22;51349;52.424;10.840;2022-12-19T22:39:59;8.00;99.90
64869;DHT22;51349;52.424;10.840;2022-12-19T22:44:59;8.00;99.90
64869;DHT22;51349;52.424;10.840;2022-12-19T22:50:00;7.80;99.90
64869;DHT22;51349;52.424;10.840;2022-12-19T22:55:00;7.80;99.90
64869;DHT22;51349;52.424;10.840;2022-12-19T23:00:03;7.80;99.90
64869;DHT22;51349;52.424;10.840;2022-12-19T23:05:04;7.80;99.90
64869;DHT22;51349;52.424;10.840;2022-12-19T23:10:05;7.60;99.90
64869;DHT22;51349;52.424;10.840;2022-12-19T23:15:06;7.60;99.90
64869;DHT22;51349;52.424;10.840;2022-12-19T23:20:07;7.60;99.90
64869;DHT22;51349;52.424;10.840;2022-12-19T23:25:08;7.50;99.90
64869;DHT22;51349;52.424;10.840;2022-12-19T23:30:10;7.40;99.90
64869;DHT22;51349;52.424;10.840;2022-12-19T23:35:11;7.30;99.90
64869;DHT22;51349;52.424;10.840;2022-12-19T23:40:11;7.30;99.90
64869;DHT22;51349;52.424;10.840;2022-12-19T23:45:12;7.10;99.90
64869;DHT22;51349;52.424;10.840;2022-12-19T23:50:13;6.90;99.90
64869;DHT22;51349;52.424;10.840;2022-12-19T23:55:13;7.00;99.90
